Página principal
METAR-TAF:

METAR-TAF

Aeroportos :

Ouagadougou, Burkina Faso

latitude: 12-21N, longitude: 001-31W, altura: 316 m

Observação actual do tempo

O boletim foi feito há 1 hora e 8 minutos, às 09:00 UTC
Vento 8 kt de sul
Temperatura 28°C
Humidade 58%
Pressão 1013 hPa
Visibilidade 10 km ou mais
sem nuvens abaixo de 1500 metros e sem cumulonimbus

METAR: DFFD 250900Z 18008KT CAVOK 28/19 Q1013 NOSIG

Hora: 10:08 (10:08 UTC)

Previsão

O boletim foi feito há 5 horas e 8 minutos, às 05:00 UTC
Previsão válida de 25 às 06 UTC a 26 às 12 UTC
Vento 8 kt de su-sudoeste
Visibilidade 10 km ou mais
Poucas nuvensa uma altura de 2000 ft
Probabilidade 30% :
Temporariamente
de 25 às 16 UTC a 25 às 24 UTC
Visibilidade: 4000 m
Nuvens dispersasa uma altura de 2000 ft
Poucas nuvensa uma altura de 3300 ft, Cumulonimbus.
trovoada, chuva

TAF: DFFD 250500Z 2506/2612 20008KT 9999 FEW020 PROB30 TEMPO 2516/2524 4000 TSRA SCT020 FEW033CB

Observações e previsões do tempo de mais de 4000 aeroportos (mensagens METAR e TAF).

As estações disponíveis são os pontos amarelos e vermelhos sobre o mapa.

Mova o rato sobre o mapa para ver o nome da estação.

Depois clique no ponto para visualizar as observações e previsões meteorológicas.

Para alterar o mapa : clique nos botões verdes com uma cruz preta para aumentar o zoom; no botão verde com uma pitada de zoom; ou nas setas verdes para mapas adjacentes.


METAR-TAF: